createdAt,value
2017-12-23T00:01:19.771Z,6.23
2017-12-23T00:03:47.948Z,6.93
2017-12-23T00:06:16.251Z,6.47
2017-12-23T00:08:44.619Z,8.27
2017-12-23T00:11:12.984Z,8.57
2017-12-23T00:13:41.307Z,8.53
2017-12-23T00:16:09.722Z,8.63
2017-12-23T00:18:38.524Z,8.20
2017-12-23T00:21:06.499Z,7.53
2017-12-23T00:23:34.777Z,7.80
2017-12-23T00:26:03.065Z,7.83
2017-12-23T00:28:31.361Z,7.50
2017-12-23T00:30:59.765Z,7.40
2017-12-23T00:33:28.061Z,8.13
2017-12-23T00:35:57.066Z,7.70
2017-12-23T00:38:25.029Z,7.33
2017-12-23T00:40:53.461Z,6.70
2017-12-23T00:43:21.397Z,7.60
2017-12-23T00:45:49.689Z,7.90
2017-12-23T00:48:17.988Z,6.97
2017-12-23T00:50:45.500Z,6.87
2017-12-23T00:53:13.431Z,7.40
2017-12-23T00:55:41.713Z,7.70
2017-12-23T00:58:09.240Z,7.27
2017-12-23T01:00:37.160Z,7.40
2017-12-23T01:03:04.699Z,7.20
2017-12-23T01:05:32.660Z,7.47
2017-12-23T01:08:03.097Z,7.00
2017-12-23T01:10:32.688Z,7.47
2017-12-23T01:13:01.280Z,7.60
2017-12-23T01:15:30.415Z,6.57
2017-12-23T01:17:59.617Z,6.90
2017-12-23T01:20:27.151Z,7.13
2017-12-23T01:22:55.587Z,7.10
2017-12-23T01:25:24.725Z,7.33
2017-12-23T01:27:54.471Z,6.70
2017-12-23T01:30:22.101Z,7.37
2017-12-23T01:32:50.503Z,7.03
2017-12-23T01:35:23.785Z,7.73
2017-12-23T01:37:51.818Z,7.00
2017-12-23T01:40:20.899Z,7.20
2017-12-23T01:42:56.553Z,7.53
2017-12-23T01:45:25.013Z,7.73
2017-12-23T01:47:54.015Z,7.50
2017-12-23T01:50:24.368Z,7.10
2017-12-23T01:52:54.006Z,7.57
2017-12-23T01:55:21.525Z,7.33
2017-12-23T02:00:25.578Z,7.53
2017-12-23T02:02:53.481Z,7.70
2017-12-23T02:05:22.529Z,8.93
2017-12-23T02:07:51.626Z,7.87
2017-12-23T02:10:19.945Z,7.47
2017-12-23T02:12:47.861Z,7.10
2017-12-23T02:15:15.393Z,8.87
2017-12-23T02:17:44.540Z,7.50
2017-12-23T02:20:13.356Z,7.27
2017-12-23T02:22:40.954Z,6.90
2017-12-23T02:25:09.614Z,7.43
2017-12-23T02:27:37.880Z,6.87
2017-12-23T02:30:06.630Z,6.87
2017-12-23T02:32:34.905Z,6.70
2017-12-23T02:35:03.316Z,7.10
2017-12-23T02:37:30.840Z,6.73
2017-12-23T02:39:58.379Z,7.70
2017-12-23T02:42:26.296Z,6.67
2017-12-23T02:44:55.277Z,6.57
2017-12-23T02:47:24.001Z,6.90
2017-12-23T02:49:52.347Z,6.37
2017-12-23T02:52:20.278Z,6.67
2017-12-23T02:54:48.219Z,7.30
2017-12-23T02:57:16.513Z,7.20
2017-12-23T02:59:45.062Z,6.30
2017-12-23T03:02:13.777Z,7.70
2017-12-23T03:04:42.081Z,7.50
2017-12-23T03:07:10.001Z,7.33
2017-12-23T03:09:38.297Z,6.87
2017-12-23T03:12:06.618Z,7.63
2017-12-23T03:14:34.886Z,7.07
2017-12-23T03:17:02.426Z,7.83
2017-12-23T03:19:30.414Z,7.33
2017-12-23T03:22:00.113Z,7.50
2017-12-23T03:24:27.645Z,7.47
2017-12-23T03:26:55.588Z,6.83
2017-12-23T03:29:23.877Z,6.47
2017-12-23T03:31:52.369Z,6.30
2017-12-23T03:34:21.572Z,6.50
2017-12-23T03:36:49.094Z,5.93
2017-12-23T03:39:16.612Z,6.87
2017-12-23T03:41:44.545Z,6.67
2017-12-23T03:44:13.576Z,6.37
2017-12-23T03:46:41.870Z,6.33
2017-12-23T03:49:10.144Z,5.57
2017-12-23T03:51:37.675Z,6.00
2017-12-23T03:54:05.964Z,5.57
2017-12-23T03:56:33.492Z,5.57
2017-12-23T03:59:01.561Z,5.80
2017-12-23T04:01:29.858Z,5.70
2017-12-23T04:03:58.195Z,5.60
2017-12-23T04:06:26.991Z,5.77
2017-12-23T04:08:54.896Z,5.13
2017-12-23T04:11:23.196Z,5.10
2017-12-23T04:13:51.477Z,4.83
2017-12-23T04:16:19.889Z,5.40
2017-12-23T04:18:47.406Z,5.00
2017-12-23T04:21:15.339Z,5.13
2017-12-23T04:23:43.620Z,5.10
2017-12-23T04:26:13.520Z,4.60
2017-12-23T04:28:41.804Z,5.27
2017-12-23T04:31:10.112Z,5.00
2017-12-23T04:33:38.701Z,4.63
2017-12-23T04:36:06.997Z,4.97
2017-12-23T04:38:35.283Z,4.97
2017-12-23T04:41:05.636Z,4.20
2017-12-23T04:43:33.723Z,5.00
2017-12-23T04:49:01.810Z,5.07
2017-12-23T04:51:30.319Z,4.20
2017-12-23T04:53:58.733Z,4.53
2017-12-23T04:56:27.055Z,5.20
2017-12-23T04:58:56.263Z,5.10
2017-12-23T05:01:24.632Z,4.67
2017-12-23T05:03:52.152Z,4.87
2017-12-23T05:06:20.458Z,5.20
2017-12-23T05:08:48.733Z,4.73
2017-12-23T05:11:17.049Z,5.20
2017-12-23T05:13:46.240Z,5.20
2017-12-23T05:16:13.777Z,4.67
2017-12-23T05:18:41.318Z,5.00
2017-12-23T05:21:09.235Z,5.37
2017-12-23T05:23:38.330Z,5.00
2017-12-23T05:26:06.256Z,4.80
2017-12-23T05:28:34.443Z,4.60
2017-12-23T05:31:03.145Z,5.40
2017-12-23T05:33:31.078Z,4.57
2017-12-23T05:35:59.358Z,5.00
2017-12-23T05:38:28.529Z,5.10
2017-12-23T05:40:56.050Z,4.60
2017-12-23T05:43:24.354Z,4.23
2017-12-23T05:45:53.093Z,5.00
2017-12-23T05:48:22.367Z,5.47
2017-12-23T05:50:50.661Z,5.57
2017-12-23T05:53:19.734Z,4.67
2017-12-23T05:55:47.641Z,5.57
2017-12-23T05:58:16.681Z,5.20
2017-12-23T06:00:44.192Z,5.00
2017-12-23T06:03:12.485Z,4.90
2017-12-23T06:05:40.771Z,5.50
2017-12-23T06:08:09.074Z,5.80
2017-12-23T06:10:37.118Z,5.50
2017-12-23T06:13:04.658Z,6.03
2017-12-23T06:15:32.936Z,6.33
2017-12-23T06:18:01.249Z,5.10
2017-12-23T06:20:30.364Z,5.27
2017-12-23T06:22:57.900Z,5.07
2017-12-23T06:25:27.093Z,5.70
2017-12-23T06:27:55.394Z,5.27
2017-12-23T06:30:22.908Z,6.80
2017-12-23T06:32:51.952Z,5.37
2017-12-23T06:35:19.860Z,5.80
2017-12-23T06:37:48.146Z,5.40
2017-12-23T06:40:17.362Z,6.17
2017-12-23T06:42:44.868Z,5.57
2017-12-23T06:45:13.167Z,5.80
2017-12-23T06:47:42.228Z,8.20
2017-12-23T06:50:10.157Z,6.17
2017-12-23T06:52:38.076Z,6.13
2017-12-23T06:55:06.381Z,6.17
2017-12-23T06:57:35.565Z,6.33
2017-12-23T07:00:03.104Z,5.57
2017-12-23T07:02:31.393Z,6.60
2017-12-23T07:04:58.917Z,6.47
2017-12-23T07:07:28.360Z,6.73
2017-12-23T07:09:56.664Z,6.27
2017-12-23T07:12:24.951Z,7.10
2017-12-23T07:14:53.589Z,7.03
2017-12-23T07:17:22.586Z,7.80
2017-12-23T07:19:50.114Z,7.57
2017-12-23T07:22:18.388Z,7.83
2017-12-23T07:24:46.682Z,7.27
2017-12-23T07:27:14.963Z,7.40
2017-12-23T07:29:42.504Z,7.57
2017-12-23T07:32:10.410Z,6.90
2017-12-23T07:34:38.719Z,8.27
2017-12-23T07:37:07.373Z,9.10
2017-12-23T07:39:35.687Z,7.47
2017-12-23T07:42:04.708Z,8.37
2017-12-23T07:44:33.369Z,27.63
2017-12-23T07:47:00.883Z,10.67
2017-12-23T07:49:29.406Z,12.90
2017-12-23T07:51:58.709Z,10.67
2017-12-23T07:54:27.012Z,6.60
2017-12-23T07:56:55.297Z,7.03
2017-12-23T07:59:23.710Z,7.30
2017-12-23T08:01:52.001Z,7.17
2017-12-23T08:04:20.290Z,8.47
2017-12-23T08:06:48.999Z,7.70
2017-12-23T08:09:18.809Z,7.73
2017-12-23T08:11:46.754Z,7.50
2017-12-23T08:14:14.272Z,8.27
2017-12-23T08:16:42.573Z,8.77
2017-12-23T08:19:10.506Z,10.57
2017-12-23T08:21:39.027Z,9.90
2017-12-23T08:24:07.315Z,8.50
2017-12-23T08:26:35.644Z,8.97
2017-12-23T08:29:04.136Z,9.40
2017-12-23T08:31:32.399Z,8.03
2017-12-23T08:34:00.865Z,7.40
2017-12-23T08:36:29.173Z,8.47
2017-12-23T08:38:57.457Z,8.43
2017-12-23T08:41:26.748Z,7.73
2017-12-23T08:43:55.024Z,7.90
2017-12-23T08:46:22.561Z,6.63
2017-12-23T08:48:50.833Z,6.50
2017-12-23T08:51:20.061Z,9.30
2017-12-23T08:53:47.581Z,7.43
2017-12-23T08:56:15.908Z,8.60
2017-12-23T08:58:44.993Z,7.80
2017-12-23T09:01:12.550Z,6.27
2017-12-23T09:03:40.832Z,6.00
2017-12-23T09:06:09.671Z,7.30
2017-12-23T09:08:39.320Z,7.87
2017-12-23T09:11:10.677Z,7.50
2017-12-23T09:13:38.603Z,3.80
2017-12-23T09:16:07.613Z,3.37
2017-12-23T09:18:35.909Z,3.97
2017-12-23T09:21:03.464Z,4.10
2017-12-23T09:23:32.637Z,5.20
2017-12-23T09:26:01.392Z,4.27
2017-12-23T09:28:30.558Z,4.70
2017-12-23T09:30:59.600Z,4.87
2017-12-23T09:33:27.949Z,4.00
2017-12-23T09:35:56.256Z,4.57
2017-12-23T09:38:24.269Z,4.10
2017-12-23T09:40:52.710Z,4.43
2017-12-23T09:43:21.102Z,4.77
2017-12-23T09:45:48.647Z,4.50
2017-12-23T09:48:17.524Z,4.70
2017-12-23T09:50:45.684Z,4.00
2017-12-23T09:53:14.649Z,3.70
2017-12-23T09:55:42.237Z,4.07
2017-12-23T09:58:11.038Z,4.43
2017-12-23T10:00:39.393Z,4.77
2017-12-23T10:03:07.856Z,4.17
2017-12-23T10:05:36.288Z,4.00
2017-12-23T10:08:06.304Z,5.10
2017-12-23T10:10:34.723Z,4.07
2017-12-23T10:13:03.441Z,5.40
2017-12-23T10:15:31.354Z,5.30
2017-12-23T10:17:59.655Z,4.47
2017-12-23T10:20:27.978Z,4.10
2017-12-23T10:22:56.317Z,4.50
2017-12-23T10:25:23.832Z,4.63
2017-12-23T10:27:51.761Z,4.87
2017-12-23T10:30:20.057Z,4.37
2017-12-23T10:32:48.440Z,4.70
2017-12-23T10:35:16.713Z,4.77
2017-12-23T10:37:45.654Z,4.80
2017-12-23T10:40:13.595Z,6.10
2017-12-23T10:42:43.393Z,4.97
2017-12-23T10:45:11.678Z,4.80
2017-12-23T10:47:41.951Z,4.80
2017-12-23T10:50:09.913Z,4.80
2017-12-23T10:52:38.357Z,5.23
2017-12-23T10:55:07.166Z,4.77
2017-12-23T10:57:34.936Z,4.50
2017-12-23T11:00:06.201Z,4.70
2017-12-23T11:02:41.542Z,4.97
2017-12-23T11:05:14.569Z,4.40
2017-12-23T11:07:48.447Z,3.83
2017-12-23T11:10:16.917Z,3.97
2017-12-23T11:12:47.851Z,4.00
2017-12-23T11:15:16.408Z,5.00
2017-12-23T11:17:46.233Z,4.40
2017-12-23T11:20:13.807Z,4.57
2017-12-23T11:22:42.106Z,4.10
2017-12-23T11:25:10.420Z,4.73
2017-12-23T11:27:38.719Z,4.13
2017-12-23T11:30:07.035Z,4.57
2017-12-23T11:32:35.519Z,4.73
2017-12-23T11:35:04.487Z,5.00
2017-12-23T11:37:32.039Z,3.30
2017-12-23T11:40:01.614Z,3.93
2017-12-23T11:42:30.738Z,3.87
2017-12-23T11:45:07.210Z,4.77
2017-12-23T11:47:35.121Z,3.23
2017-12-23T11:50:03.664Z,3.47
2017-12-23T11:52:31.965Z,3.80
2017-12-23T11:55:00.985Z,4.83
2017-12-23T11:57:28.502Z,4.53
2017-12-23T11:59:56.051Z,5.60
2017-12-23T12:02:24.145Z,4.57
2017-12-23T12:04:52.460Z,10.37
2017-12-23T12:07:21.485Z,6.80
2017-12-23T12:09:49.947Z,4.80
2017-12-23T12:12:18.310Z,7.00
2017-12-23T12:14:46.614Z,5.03
2017-12-23T12:17:14.896Z,2.80
2017-12-23T12:19:42.449Z,3.97
2017-12-23T12:22:11.432Z,3.60
2017-12-23T12:24:39.369Z,4.90
2017-12-23T12:27:07.658Z,7.33
2017-12-23T12:29:35.970Z,3.90
2017-12-23T12:32:04.254Z,2.90
2017-12-23T12:34:32.704Z,3.20
2017-12-23T12:37:01.787Z,3.40
2017-12-23T12:39:29.363Z,2.80
2017-12-23T12:41:57.807Z,2.83
2017-12-23T12:44:26.090Z,2.60
2017-12-23T12:46:54.396Z,2.70
2017-12-23T12:49:22.802Z,2.70
2017-12-23T12:51:51.108Z,2.80
2017-12-23T12:54:19.491Z,2.57
2017-12-23T12:56:47.802Z,2.60
2017-12-23T13:02:47.868Z,3.20
2017-12-23T13:05:17.049Z,2.27
2017-12-23T13:07:44.973Z,2.57
2017-12-23T13:10:13.265Z,2.30
2017-12-23T13:12:42.103Z,2.37
2017-12-23T13:15:10.895Z,2.40
2017-12-23T13:17:38.429Z,3.00
2017-12-23T13:20:07.004Z,2.80
2017-12-23T13:22:36.013Z,3.03
2017-12-23T13:25:04.521Z,2.50
2017-12-23T13:27:32.066Z,3.03
2017-12-23T13:30:00.377Z,2.77
2017-12-23T13:32:30.005Z,2.93
2017-12-23T13:34:58.323Z,3.20
2017-12-23T13:37:27.534Z,5.47
2017-12-23T13:39:55.107Z,3.80
2017-12-23T13:42:23.531Z,3.20
2017-12-23T13:44:51.868Z,3.53
2017-12-23T13:47:21.096Z,2.60
2017-12-23T13:49:48.605Z,2.63
2017-12-23T13:52:16.912Z,2.47
2017-12-23T13:54:45.230Z,2.40
2017-12-23T13:57:13.767Z,2.70
2017-12-23T13:59:42.049Z,3.50
2017-12-23T14:02:11.171Z,3.03
2017-12-23T14:04:39.803Z,2.70
2017-12-23T14:07:08.056Z,2.43
2017-12-23T14:09:35.579Z,3.10
2017-12-23T14:12:04.616Z,2.67
2017-12-23T14:14:32.969Z,2.60
2017-12-23T14:17:01.425Z,2.43
2017-12-23T14:19:28.954Z,3.00
2017-12-23T14:21:57.900Z,2.50
2017-12-23T14:24:25.416Z,3.00
2017-12-23T14:26:53.946Z,2.40
2017-12-23T14:29:22.262Z,2.23
2017-12-23T14:31:51.405Z,2.10
2017-12-23T14:34:18.923Z,1.90
2017-12-23T14:36:47.238Z,2.20
2017-12-23T14:39:16.582Z,2.40
2017-12-23T14:41:44.114Z,2.57
2017-12-23T14:44:12.451Z,2.27
2017-12-23T14:46:40.749Z,2.00
2017-12-23T14:49:09.778Z,2.93
2017-12-23T14:51:37.301Z,2.57
2017-12-23T14:54:06.337Z,2.40
2017-12-23T14:56:36.725Z,2.10
2017-12-23T14:59:05.529Z,2.37
2017-12-23T15:01:34.370Z,2.40
2017-12-23T15:04:01.906Z,2.00
2017-12-23T15:06:31.107Z,1.90
2017-12-23T15:08:59.466Z,2.27
2017-12-23T15:11:27.981Z,2.07
2017-12-23T15:13:55.537Z,1.90
2017-12-23T15:16:24.069Z,2.30
2017-12-23T15:18:51.994Z,2.37
2017-12-23T15:21:20.269Z,1.73
2017-12-23T15:23:47.811Z,1.93
2017-12-23T15:26:17.409Z,2.37
2017-12-23T15:28:45.511Z,2.40
2017-12-23T15:31:13.793Z,2.93
2017-12-23T15:33:42.413Z,5.03
2017-12-23T15:36:11.068Z,5.23
2017-12-23T15:38:38.986Z,4.60
2017-12-23T15:41:07.274Z,6.27
2017-12-23T15:43:35.628Z,4.10
2017-12-23T15:46:03.955Z,3.90
2017-12-23T15:48:33.394Z,2.97
2017-12-23T15:51:00.901Z,3.50
2017-12-23T15:53:29.579Z,2.73
2017-12-23T15:55:57.097Z,2.20
2017-12-23T15:58:25.613Z,2.97
2017-12-23T16:00:54.681Z,2.20
2017-12-23T16:03:23.081Z,2.50
2017-12-23T16:05:50.603Z,2.40
2017-12-23T16:08:19.377Z,2.60
2017-12-23T16:10:48.022Z,3.00
2017-12-23T16:13:16.398Z,2.40
2017-12-23T16:15:43.914Z,2.37
2017-12-23T16:18:11.470Z,3.07
2017-12-23T16:20:39.396Z,2.63
2017-12-23T16:23:08.490Z,2.80
2017-12-23T16:25:36.426Z,3.20
2017-12-23T16:28:04.464Z,3.00
2017-12-23T16:30:33.306Z,2.57
2017-12-23T16:33:01.218Z,2.63
2017-12-23T16:35:29.533Z,2.00
2017-12-23T16:37:57.822Z,2.27
2017-12-23T16:40:26.378Z,1.80
2017-12-23T16:42:55.361Z,1.60
2017-12-23T16:45:24.719Z,1.70
2017-12-23T16:47:52.630Z,1.90
2017-12-23T16:50:21.181Z,1.37
2017-12-23T16:52:49.770Z,1.70
2017-12-23T16:55:18.849Z,2.30
2017-12-23T16:57:47.383Z,2.30
2017-12-23T17:00:14.997Z,2.23
2017-12-23T17:02:43.701Z,2.10
2017-12-23T17:05:11.283Z,2.70
2017-12-23T17:07:40.576Z,2.17
2017-12-23T17:10:10.489Z,2.67
2017-12-23T17:12:39.144Z,2.80
2017-12-23T17:15:08.173Z,3.43
2017-12-23T17:17:35.690Z,2.87
2017-12-23T17:20:04.723Z,3.03
2017-12-23T17:22:32.237Z,2.60
2017-12-23T17:24:59.782Z,2.80
2017-12-23T17:27:28.076Z,3.07
2017-12-23T17:30:09.129Z,2.40
2017-12-23T17:32:37.089Z,2.10
2017-12-23T17:35:05.393Z,2.00
2017-12-23T17:37:33.735Z,2.27
2017-12-23T17:40:02.766Z,2.20
2017-12-23T17:42:31.596Z,2.40
2017-12-23T17:45:01.350Z,1.97
2017-12-23T17:47:29.676Z,2.20
2017-12-23T17:49:58.133Z,2.30
2017-12-23T17:52:27.300Z,2.90
2017-12-23T17:54:54.908Z,1.93
2017-12-23T17:57:23.266Z,2.00
2017-12-23T17:59:50.849Z,2.23
2017-12-23T18:02:20.389Z,2.70
2017-12-23T18:04:49.066Z,2.53
2017-12-23T18:07:17.069Z,2.40
2017-12-23T18:09:46.361Z,2.73
2017-12-23T18:12:14.754Z,3.73
2017-12-23T18:14:42.683Z,2.27
2017-12-23T18:17:11.545Z,2.80
2017-12-23T18:19:39.883Z,2.80
2017-12-23T18:22:08.877Z,2.93
2017-12-23T18:24:37.805Z,2.60
2017-12-23T18:27:06.905Z,2.53
2017-12-23T18:29:35.200Z,2.77
2017-12-23T18:32:03.188Z,2.50
2017-12-23T18:34:31.752Z,2.77
2017-12-23T18:36:59.776Z,2.47
2017-12-23T18:39:28.118Z,3.00
2017-12-23T18:41:56.462Z,2.77
2017-12-23T18:44:26.968Z,2.40
2017-12-23T18:46:55.001Z,2.90
2017-12-23T18:49:23.400Z,2.63
2017-12-23T18:51:52.937Z,3.53
2017-12-23T18:54:21.204Z,4.80
2017-12-23T18:56:49.548Z,4.03
2017-12-23T18:59:18.406Z,3.63
2017-12-23T19:01:46.003Z,3.20
2017-12-23T19:04:13.584Z,3.20
2017-12-23T19:06:41.528Z,3.27
2017-12-23T19:09:09.863Z,3.50
2017-12-23T19:11:38.168Z,4.17
2017-12-23T19:14:07.388Z,4.90
2017-12-23T19:16:47.328Z,3.97
2017-12-23T19:19:15.921Z,4.40
2017-12-23T19:21:46.017Z,4.30
2017-12-23T19:24:13.811Z,3.43
2017-12-23T19:26:42.193Z,3.97
2017-12-23T19:29:11.274Z,3.80
2017-12-23T19:31:38.828Z,3.17
2017-12-23T19:34:07.172Z,3.93
2017-12-23T19:36:35.524Z,3.90
2017-12-23T19:39:03.865Z,2.80
2017-12-23T19:41:32.229Z,3.90
2017-12-23T19:44:01.449Z,4.97
2017-12-23T19:46:29.413Z,5.17
2017-12-23T19:48:57.407Z,3.47
2017-12-23T19:51:26.365Z,3.40
2017-12-23T19:53:55.563Z,3.20
2017-12-23T19:56:23.914Z,3.43
2017-12-23T19:58:52.267Z,3.80
2017-12-23T20:01:20.599Z,4.07
2017-12-23T20:03:49.654Z,4.43
2017-12-23T20:06:17.221Z,3.70
2017-12-23T20:08:45.904Z,4.47
2017-12-23T20:11:14.675Z,3.03
2017-12-23T20:13:42.259Z,2.93
2017-12-23T20:16:10.602Z,3.70
2017-12-23T20:18:39.522Z,2.87
2017-12-23T20:21:07.389Z,3.90
2017-12-23T20:23:35.747Z,3.17
2017-12-23T20:26:04.089Z,3.13
2017-12-23T20:28:32.481Z,3.87
2017-12-23T20:31:00.810Z,4.20
2017-12-23T20:33:30.032Z,3.27
2017-12-23T20:35:57.595Z,3.20
2017-12-23T20:38:27.484Z,3.23
2017-12-23T20:40:57.268Z,2.90
2017-12-23T20:43:25.468Z,3.67
2017-12-23T20:45:53.792Z,3.03
2017-12-23T20:48:23.138Z,2.90
2017-12-23T20:50:51.090Z,3.07
2017-12-23T20:53:18.660Z,2.90
2017-12-23T20:55:48.015Z,5.90
2017-12-23T20:58:15.573Z,6.03
2017-12-23T21:00:43.617Z,4.87
2017-12-23T21:03:11.201Z,3.50
2017-12-23T21:05:39.220Z,2.93
2017-12-23T21:08:07.568Z,3.47
2017-12-23T21:10:37.545Z,2.87
2017-12-23T21:13:06.432Z,2.87
2017-12-23T21:15:34.427Z,2.57
2017-12-23T21:18:02.006Z,2.67
2017-12-23T21:20:31.153Z,2.80
2017-12-23T21:22:59.525Z,2.67
2017-12-23T21:27:59.727Z,2.77
2017-12-23T21:30:28.098Z,3.27
2017-12-23T21:32:56.454Z,2.43
2017-12-23T21:35:24.834Z,2.60
2017-12-23T21:37:53.190Z,2.20
2017-12-23T21:40:21.558Z,2.40
2017-12-23T21:42:49.914Z,2.00
2017-12-23T21:45:18.290Z,2.70
2017-12-23T21:47:46.645Z,2.30
2017-12-23T21:50:15.027Z,2.17
2017-12-23T21:52:43.410Z,2.23
2017-12-23T21:55:11.786Z,2.67
2017-12-23T21:57:39.851Z,2.20
2017-12-23T22:00:08.224Z,2.50
2017-12-23T22:02:36.569Z,2.27
2017-12-23T22:05:04.951Z,2.27
2017-12-23T22:07:33.366Z,2.70
2017-12-23T22:10:01.739Z,2.20
2017-12-23T22:12:30.126Z,1.57
2017-12-23T22:14:58.502Z,2.50
2017-12-23T22:17:26.861Z,2.20
2017-12-23T22:19:54.857Z,2.10
2017-12-23T22:22:23.228Z,2.53
2017-12-23T22:24:51.607Z,2.00
2017-12-23T22:27:19.983Z,2.90
2017-12-23T22:29:48.365Z,2.37
2017-12-23T22:32:16.711Z,2.50
2017-12-23T22:34:45.062Z,2.60
2017-12-23T22:37:13.428Z,2.47
2017-12-23T22:39:41.882Z,2.53
2017-12-23T22:42:10.253Z,2.80
2017-12-23T22:44:38.603Z,2.70
2017-12-23T22:47:06.969Z,2.87
2017-12-23T22:49:35.321Z,2.73
2017-12-23T22:52:03.694Z,2.73
2017-12-23T22:54:32.048Z,2.67
2017-12-23T22:57:00.417Z,2.40
2017-12-23T22:59:28.765Z,2.50
2017-12-23T23:01:57.130Z,2.03
2017-12-23T23:04:25.486Z,2.50
2017-12-23T23:06:53.856Z,2.97
2017-12-23T23:09:21.825Z,1.90
2017-12-23T23:11:49.430Z,2.73
2017-12-23T23:14:17.358Z,2.33
2017-12-23T23:16:45.716Z,2.60
2017-12-23T23:19:14.018Z,2.40
2017-12-23T23:21:42.372Z,2.13
2017-12-23T23:24:10.722Z,2.03
2017-12-23T23:26:39.089Z,2.37
2017-12-23T23:29:07.429Z,2.27
2017-12-23T23:31:35.808Z,2.23
2017-12-23T23:34:04.099Z,2.67
2017-12-23T23:36:32.410Z,2.40
2017-12-23T23:38:59.985Z,2.80
2017-12-23T23:41:27.931Z,2.63
2017-12-23T23:43:56.273Z,3.10
2017-12-23T23:46:24.569Z,2.83
2017-12-23T23:48:52.933Z,3.23
2017-12-23T23:51:21.277Z,3.03
2017-12-23T23:53:49.641Z,3.23
2017-12-23T23:56:19.162Z,3.57
2017-12-23T23:58:47.482Z,3.97
